createdAt,value
2017-07-09T00:02:07.999Z,25.27
2017-07-09T00:04:35.950Z,25.27
2017-07-09T00:07:03.869Z,25.27
2017-07-09T00:09:31.808Z,25.26
2017-07-09T00:11:59.730Z,25.26
2017-07-09T00:14:27.662Z,25.26
2017-07-09T00:16:55.633Z,25.25
2017-07-09T00:19:23.578Z,25.23
2017-07-09T00:21:51.509Z,25.24
2017-07-09T00:24:19.485Z,25.24
2017-07-09T00:26:47.410Z,25.23
2017-07-09T00:29:15.348Z,25.22
2017-07-09T00:31:43.266Z,25.22
2017-07-09T00:34:11.192Z,25.21
2017-07-09T00:36:39.117Z,25.21
2017-07-09T00:39:07.040Z,25.21
2017-07-09T00:41:34.983Z,25.19
2017-07-09T00:44:02.899Z,25.20
2017-07-09T00:46:30.822Z,25.19
2017-07-09T00:48:58.794Z,25.19
2017-07-09T00:51:26.710Z,25.17
2017-07-09T00:53:55.093Z,25.17
2017-07-09T00:56:23.024Z,25.17
2017-07-09T00:58:50.943Z,25.16
2017-07-09T01:01:18.870Z,25.16
2017-07-09T01:03:46.789Z,25.14
2017-07-09T01:06:14.742Z,25.13
2017-07-09T01:08:42.662Z,25.15
2017-07-09T01:11:10.573Z,25.13
2017-07-09T01:13:38.540Z,25.12
2017-07-09T01:16:06.483Z,25.11
2017-07-09T01:18:34.413Z,25.11
2017-07-09T01:21:02.349Z,25.09
2017-07-09T01:23:30.281Z,25.09
2017-07-09T01:25:58.222Z,25.09
2017-07-09T01:28:26.129Z,25.08
2017-07-09T01:30:54.070Z,25.07
2017-07-09T01:33:21.992Z,25.07
2017-07-09T01:35:49.910Z,25.07
2017-07-09T01:38:17.877Z,25.06
2017-07-09T01:40:45.813Z,25.06
2017-07-09T01:43:13.746Z,25.05
2017-07-09T01:45:41.665Z,25.04
2017-07-09T01:48:09.581Z,25.04
2017-07-09T01:50:37.549Z,25.03
2017-07-09T01:53:05.471Z,25.03
2017-07-09T01:55:33.422Z,25.03
2017-07-09T01:58:01.398Z,25.02
2017-07-09T02:00:29.332Z,25.02
2017-07-09T02:02:57.258Z,25.02
2017-07-09T02:05:25.189Z,25.01
2017-07-09T02:07:53.149Z,25.01
2017-07-09T02:10:21.070Z,25.01
2017-07-09T02:12:48.994Z,25.01
2017-07-09T02:15:16.938Z,25.00
2017-07-09T02:17:44.846Z,25.00
2017-07-09T02:20:12.766Z,25.00
2017-07-09T02:22:40.680Z,24.99
2017-07-09T02:25:08.645Z,24.99
2017-07-09T02:27:36.566Z,24.99
2017-07-09T02:30:04.489Z,24.99
2017-07-09T02:32:32.414Z,24.97
2017-07-09T02:35:00.338Z,24.98
2017-07-09T02:37:28.282Z,24.97
2017-07-09T02:39:56.196Z,24.97
2017-07-09T02:42:24.377Z,24.96
2017-07-09T02:44:52.738Z,24.96
2017-07-09T02:47:20.690Z,24.96
2017-07-09T02:49:49.090Z,24.94
2017-07-09T02:52:17.002Z,24.95
2017-07-09T02:54:44.920Z,24.94
2017-07-09T02:57:12.838Z,24.93
2017-07-09T02:59:40.775Z,24.92
2017-07-09T03:02:08.726Z,24.92
2017-07-09T03:04:36.639Z,24.91
2017-07-09T03:07:04.569Z,24.91
2017-07-09T03:09:32.559Z,24.90
2017-07-09T03:12:00.473Z,24.91
2017-07-09T03:14:28.438Z,24.88
2017-07-09T03:16:56.352Z,24.89
2017-07-09T03:19:24.274Z,24.87
2017-07-09T03:21:52.198Z,24.87
2017-07-09T03:24:20.116Z,24.88
2017-07-09T03:26:48.053Z,24.87
2017-07-09T03:29:15.977Z,24.86
2017-07-09T03:31:43.907Z,24.85
2017-07-09T03:34:11.828Z,24.84
2017-07-09T03:36:39.769Z,24.84
2017-07-09T03:39:07.723Z,24.82
2017-07-09T03:41:35.645Z,24.84
2017-07-09T03:44:03.576Z,24.82
2017-07-09T03:46:31.489Z,24.82
2017-07-09T03:48:59.409Z,24.80
2017-07-09T03:51:27.354Z,24.80
2017-07-09T03:53:55.287Z,24.78
2017-07-09T03:56:23.224Z,24.79
2017-07-09T03:58:51.140Z,24.79
2017-07-09T04:01:19.061Z,24.79
2017-07-09T04:03:47.035Z,24.78
2017-07-09T04:06:14.989Z,24.77
2017-07-09T04:08:42.942Z,24.77
2017-07-09T04:11:10.867Z,24.76
2017-07-09T04:13:38.825Z,24.77
2017-07-09T04:16:06.763Z,24.76
2017-07-09T04:18:34.697Z,24.76
2017-07-09T04:21:02.624Z,24.75
2017-07-09T04:23:30.549Z,24.76
2017-07-09T04:25:58.479Z,24.75
2017-07-09T04:28:26.436Z,24.74
2017-07-09T04:30:54.371Z,24.74
2017-07-09T04:33:22.303Z,24.74
2017-07-09T04:35:50.238Z,24.73
2017-07-09T04:38:18.170Z,24.73
2017-07-09T04:40:46.115Z,24.73
2017-07-09T04:43:14.042Z,24.72
2017-07-09T04:45:41.978Z,24.72
2017-07-09T04:48:09.902Z,24.70
2017-07-09T04:50:37.834Z,24.71
2017-07-09T04:53:05.774Z,24.71
2017-07-09T04:55:33.701Z,24.69
2017-07-09T04:58:01.637Z,24.69
2017-07-09T05:00:29.565Z,24.69
2017-07-09T05:02:57.483Z,24.69
2017-07-09T05:05:25.418Z,24.68
2017-07-09T05:07:53.329Z,24.67
2017-07-09T05:10:21.261Z,24.67
2017-07-09T05:12:49.220Z,24.67
2017-07-09T05:15:17.171Z,24.66
2017-07-09T05:17:45.363Z,24.67
2017-07-09T05:20:13.314Z,24.67
2017-07-09T05:22:41.257Z,24.66
2017-07-09T05:25:09.193Z,24.66
2017-07-09T05:27:37.117Z,24.65
2017-07-09T05:30:05.039Z,24.65
2017-07-09T05:32:33.022Z,24.65
2017-07-09T05:35:00.979Z,24.65
2017-07-09T05:37:28.914Z,24.64
2017-07-09T05:39:56.857Z,24.64
2017-07-09T05:42:24.774Z,24.63
2017-07-09T05:44:52.853Z,24.62
2017-07-09T05:47:21.151Z,24.62
2017-07-09T05:49:49.110Z,24.62
2017-07-09T05:52:17.043Z,24.62
2017-07-09T05:54:45.136Z,24.63
2017-07-09T05:57:13.049Z,24.63
2017-07-09T05:59:41.008Z,24.59
2017-07-09T06:02:08.954Z,24.27
2017-07-09T06:04:37.166Z,23.84
2017-07-09T06:07:05.169Z,23.33
2017-07-09T06:09:33.118Z,23.01
2017-07-09T06:12:01.079Z,22.85
2017-07-09T06:14:29.011Z,22.74
2017-07-09T06:16:57.276Z,22.50
2017-07-09T06:19:25.207Z,22.49
2017-07-09T06:21:53.150Z,22.29
2017-07-09T06:24:21.090Z,22.29
2017-07-09T06:26:49.033Z,22.33
2017-07-09T06:29:16.958Z,22.21
2017-07-09T06:31:45.793Z,22.10
2017-07-09T06:34:13.725Z,22.01
2017-07-09T06:36:41.684Z,21.90
2017-07-09T06:39:09.654Z,21.81
2017-07-09T06:41:38.023Z,21.64
2017-07-09T06:44:06.130Z,21.85
2017-07-09T06:46:34.386Z,21.91
2017-07-09T06:51:38.999Z,21.93
2017-07-09T06:54:07.309Z,21.82
2017-07-09T06:56:35.303Z,22.04
2017-07-09T06:59:03.258Z,22.12
2017-07-09T07:01:31.190Z,22.21
2017-07-09T07:03:59.798Z,22.12
2017-07-09T07:06:27.782Z,22.08
2017-07-09T07:08:55.676Z,22.14
2017-07-09T07:11:23.625Z,22.24
2017-07-09T07:13:51.597Z,22.31
2017-07-09T07:16:19.539Z,22.38
2017-07-09T07:18:47.490Z,22.34
2017-07-09T07:21:15.418Z,22.42
2017-07-09T07:23:43.340Z,22.50
2017-07-09T07:26:11.292Z,22.57
2017-07-09T07:28:39.227Z,22.57
2017-07-09T07:31:07.167Z,22.65
2017-07-09T07:33:35.102Z,22.68
2017-07-09T07:36:03.049Z,22.76
2017-07-09T07:38:31.009Z,22.76
2017-07-09T07:40:58.942Z,22.76
2017-07-09T07:43:26.872Z,22.87
2017-07-09T07:45:54.814Z,22.83
2017-07-09T07:48:22.889Z,22.89
2017-07-09T07:50:50.962Z,22.94
2017-07-09T07:53:18.890Z,22.98
2017-07-09T07:55:46.818Z,22.99
2017-07-09T07:58:14.765Z,23.03
2017-07-09T08:00:42.849Z,23.13
2017-07-09T08:03:10.786Z,23.15
2017-07-09T08:05:38.763Z,23.18
2017-07-09T08:08:06.704Z,23.10
2017-07-09T08:10:34.668Z,23.04
2017-07-09T08:13:02.623Z,23.13
2017-07-09T08:15:30.618Z,23.25
2017-07-09T08:17:58.642Z,23.31
2017-07-09T08:20:26.828Z,23.37
2017-07-09T08:22:54.957Z,23.39
2017-07-09T08:25:22.943Z,23.43
2017-07-09T08:27:51.002Z,23.45
2017-07-09T08:30:19.091Z,23.45
2017-07-09T08:32:47.108Z,23.49
2017-07-09T08:35:15.080Z,23.51
2017-07-09T08:37:43.058Z,23.50
2017-07-09T08:40:11.091Z,23.59
2017-07-09T08:42:39.121Z,23.55
2017-07-09T08:45:07.170Z,23.49
2017-07-09T08:47:35.509Z,23.55
2017-07-09T08:50:03.662Z,23.59
2017-07-09T08:52:31.825Z,23.61
2017-07-09T08:55:00.058Z,23.65
2017-07-09T08:57:28.423Z,23.61
2017-07-09T08:59:56.494Z,23.67
2017-07-09T09:02:24.493Z,23.71
2017-07-09T09:04:52.565Z,23.71
2017-07-09T09:07:20.783Z,23.67
2017-07-09T09:09:48.819Z,23.78
2017-07-09T09:12:16.839Z,23.86
2017-07-09T09:14:44.961Z,23.83
2017-07-09T09:17:12.933Z,23.84
2017-07-09T09:19:40.851Z,23.87
2017-07-09T09:22:08.890Z,23.85
2017-07-09T09:24:36.836Z,23.87
2017-07-09T09:27:04.797Z,23.90
2017-07-09T09:29:32.768Z,23.96
2017-07-09T09:32:00.718Z,23.93
2017-07-09T09:34:29.199Z,23.96
2017-07-09T09:36:58.184Z,23.90
2017-07-09T09:39:27.304Z,23.94
2017-07-09T09:41:55.815Z,23.94
2017-07-09T09:44:24.500Z,24.01
2017-07-09T09:46:53.478Z,24.05
2017-07-09T09:49:22.511Z,23.95
2017-07-09T09:51:51.571Z,23.79
2017-07-09T09:54:20.473Z,23.76
2017-07-09T09:56:49.349Z,23.81
2017-07-09T09:59:18.181Z,23.90
2017-07-09T10:01:46.971Z,23.95
2017-07-09T10:04:16.052Z,24.00
2017-07-09T10:06:46.945Z,24.00
2017-07-09T10:09:15.637Z,23.84
2017-07-09T10:11:44.452Z,23.83
2017-07-09T10:14:13.236Z,23.88
2017-07-09T10:16:42.097Z,23.78
2017-07-09T10:19:10.639Z,23.66
2017-07-09T10:21:39.107Z,23.73
2017-07-09T10:24:08.042Z,23.86
2017-07-09T10:26:36.837Z,23.81
2017-07-09T10:29:05.582Z,23.74
2017-07-09T10:31:34.465Z,23.78
2017-07-09T10:34:03.386Z,23.90
2017-07-09T10:36:31.953Z,23.79
2017-07-09T10:39:00.486Z,23.87
2017-07-09T10:41:29.765Z,23.88
2017-07-09T10:43:57.944Z,23.97
2017-07-09T10:46:37.420Z,23.93
2017-07-09T10:49:06.475Z,23.79
2017-07-09T10:51:35.255Z,23.75
2017-07-09T10:54:03.290Z,23.70
2017-07-09T10:56:31.360Z,23.84
2017-07-09T10:58:59.391Z,23.97
2017-07-09T11:01:27.467Z,23.92
2017-07-09T11:03:55.502Z,23.98
2017-07-09T11:06:23.565Z,23.88
2017-07-09T11:08:51.541Z,23.98
2017-07-09T11:11:19.480Z,24.01
2017-07-09T11:13:47.412Z,24.08
2017-07-09T11:16:15.345Z,24.14
2017-07-09T11:18:43.282Z,24.21
2017-07-09T11:21:11.191Z,24.26
2017-07-09T11:23:39.127Z,24.32
2017-07-09T11:26:07.135Z,24.36
2017-07-09T11:28:35.072Z,24.40
2017-07-09T11:31:03.002Z,24.44
2017-07-09T11:33:30.938Z,24.44
2017-07-09T11:35:58.865Z,24.48
2017-07-09T11:38:26.800Z,24.50
2017-07-09T11:40:54.709Z,24.51
2017-07-09T11:43:22.663Z,24.56
2017-07-09T11:45:53.203Z,24.58
2017-07-09T11:48:21.284Z,24.61
2017-07-09T11:50:52.152Z,24.62
2017-07-09T11:53:20.201Z,24.64
2017-07-09T11:55:48.114Z,24.65
2017-07-09T11:58:16.040Z,24.66
2017-07-09T12:00:43.966Z,24.67
2017-07-09T12:03:11.868Z,24.67
2017-07-09T12:05:39.796Z,24.68
2017-07-09T12:08:07.719Z,24.70
2017-07-09T12:10:35.665Z,24.73
2017-07-09T12:13:03.689Z,24.65
2017-07-09T12:15:31.674Z,24.62
2017-07-09T12:17:59.608Z,24.65
2017-07-09T12:20:27.533Z,24.67
2017-07-09T12:22:55.464Z,24.61
2017-07-09T12:25:23.378Z,24.54
2017-07-09T12:27:51.305Z,24.58
2017-07-09T12:30:19.997Z,24.65
2017-07-09T12:32:47.915Z,24.71
2017-07-09T12:35:15.851Z,24.68
2017-07-09T12:37:43.755Z,24.65
2017-07-09T12:40:18.609Z,24.57
2017-07-09T12:42:46.528Z,24.56
2017-07-09T12:45:14.467Z,24.67
2017-07-09T12:47:42.365Z,24.69
2017-07-09T12:50:10.270Z,24.81
2017-07-09T12:52:38.216Z,24.80
2017-07-09T12:55:06.280Z,24.83
2017-07-09T12:57:34.212Z,24.87
2017-07-09T13:00:02.133Z,24.79
2017-07-09T13:02:30.038Z,24.84
2017-07-09T13:04:57.992Z,24.79
2017-07-09T13:07:25.897Z,24.84
2017-07-09T13:09:53.823Z,24.90
2017-07-09T13:12:21.731Z,24.90
2017-07-09T13:14:49.928Z,24.95
2017-07-09T13:17:18.199Z,24.93
2017-07-09T13:19:46.226Z,24.84
2017-07-09T13:22:14.129Z,24.87
2017-07-09T13:24:42.061Z,24.92
2017-07-09T13:27:09.981Z,24.91
2017-07-09T13:29:39.248Z,24.92
2017-07-09T13:35:01.161Z,24.87
2017-07-09T13:37:30.504Z,24.92
2017-07-09T13:39:58.516Z,24.89
2017-07-09T13:42:27.198Z,24.95
2017-07-09T13:44:55.853Z,24.90
2017-07-09T13:47:23.777Z,24.91
2017-07-09T13:49:51.684Z,24.93
2017-07-09T13:52:19.619Z,24.95
2017-07-09T13:54:47.526Z,24.98
2017-07-09T13:57:15.436Z,24.98
2017-07-09T13:59:43.352Z,25.00
2017-07-09T14:02:11.270Z,25.00
2017-07-09T14:04:39.205Z,25.04
2017-07-09T14:07:07.196Z,25.05
2017-07-09T14:09:35.094Z,25.07
2017-07-09T14:12:03.794Z,25.09
2017-07-09T14:14:33.882Z,25.11
2017-07-09T14:17:07.584Z,25.11
2017-07-09T14:19:36.482Z,25.17
2017-07-09T14:22:05.710Z,25.17
2017-07-09T14:24:36.242Z,25.11
2017-07-09T14:27:05.317Z,25.14
2017-07-09T14:29:34.761Z,25.19
2017-07-09T14:32:05.030Z,25.14
2017-07-09T14:34:33.525Z,25.15
2017-07-09T14:37:03.995Z,25.20
2017-07-09T14:39:34.369Z,25.13
2017-07-09T14:42:02.335Z,25.13
2017-07-09T14:44:30.270Z,25.20
2017-07-09T14:46:58.162Z,25.19
2017-07-09T14:49:26.197Z,25.23
2017-07-09T14:51:54.088Z,25.18
2017-07-09T14:54:22.005Z,25.20
2017-07-09T14:56:49.921Z,25.11
2017-07-09T14:59:17.963Z,25.21
2017-07-09T15:01:45.865Z,25.17
2017-07-09T15:04:13.785Z,25.19
2017-07-09T15:06:41.708Z,25.27
2017-07-09T15:09:09.631Z,25.30
2017-07-09T15:11:37.544Z,25.31
2017-07-09T15:14:05.465Z,25.30
2017-07-09T15:16:33.388Z,25.27
2017-07-09T15:19:01.382Z,25.22
2017-07-09T15:21:29.306Z,25.26
2017-07-09T15:23:57.313Z,25.28
2017-07-09T15:26:25.217Z,25.31
2017-07-09T15:28:53.204Z,25.34
2017-07-09T15:31:21.102Z,25.31
2017-07-09T15:33:49.006Z,25.26
2017-07-09T15:36:16.911Z,25.35
2017-07-09T15:38:44.818Z,25.35
2017-07-09T15:41:12.766Z,25.39
2017-07-09T15:43:40.681Z,25.37
2017-07-09T15:46:08.589Z,25.40
2017-07-09T15:48:36.484Z,25.33
2017-07-09T15:51:04.397Z,25.37
2017-07-09T15:53:32.334Z,25.42
2017-07-09T15:56:00.267Z,25.38
2017-07-09T15:58:28.188Z,25.41
2017-07-09T16:00:56.126Z,25.43
2017-07-09T16:03:24.045Z,25.44
2017-07-09T16:05:52.012Z,25.43
2017-07-09T16:08:19.928Z,25.47
2017-07-09T16:10:47.840Z,25.45
2017-07-09T16:13:21.622Z,25.38
2017-07-09T16:15:57.939Z,25.44
2017-07-09T16:18:25.887Z,25.50
2017-07-09T16:20:53.795Z,25.47
2017-07-09T16:23:22.618Z,25.52
2017-07-09T16:25:50.543Z,25.52
2017-07-09T16:28:18.488Z,25.55
2017-07-09T16:30:46.392Z,25.54
2017-07-09T16:33:14.303Z,25.57
2017-07-09T16:35:42.250Z,25.59
2017-07-09T16:38:10.157Z,25.60
2017-07-09T16:40:38.078Z,25.52
2017-07-09T16:43:05.987Z,25.60
2017-07-09T16:45:33.892Z,25.62
2017-07-09T16:48:01.908Z,25.64
2017-07-09T16:50:29.880Z,25.70
2017-07-09T16:52:57.832Z,25.73
2017-07-09T16:55:25.873Z,25.78
2017-07-09T16:57:53.899Z,25.81
2017-07-09T17:00:22.368Z,25.83
2017-07-09T17:02:50.286Z,25.82
2017-07-09T17:05:18.193Z,25.80
2017-07-09T17:07:46.321Z,25.79
2017-07-09T17:10:14.680Z,25.76
2017-07-09T17:12:42.589Z,25.74
2017-07-09T17:15:10.507Z,25.72
2017-07-09T17:17:38.442Z,25.71
2017-07-09T17:20:06.502Z,25.68
2017-07-09T17:22:34.417Z,25.68
2017-07-09T17:25:02.320Z,25.64
2017-07-09T17:27:30.235Z,25.62
2017-07-09T17:29:58.143Z,25.60
2017-07-09T17:32:26.090Z,25.58
2017-07-09T17:34:54.230Z,25.57
2017-07-09T17:37:22.136Z,25.54
2017-07-09T17:39:50.173Z,25.54
2017-07-09T17:42:18.158Z,25.50
2017-07-09T17:44:46.139Z,25.47
2017-07-09T17:47:14.078Z,25.47
2017-07-09T17:49:41.993Z,25.48
2017-07-09T17:52:10.013Z,25.46
2017-07-09T17:54:37.937Z,25.45
2017-07-09T17:57:06.068Z,25.44
2017-07-09T17:59:33.991Z,25.37
2017-07-09T18:02:01.950Z,25.38
2017-07-09T18:04:29.862Z,25.36
2017-07-09T18:06:57.781Z,25.33
2017-07-09T18:09:26.223Z,25.30
2017-07-09T18:11:54.137Z,25.29
2017-07-09T18:14:22.050Z,25.26
2017-07-09T18:16:49.991Z,25.25
2017-07-09T18:19:18.880Z,25.20
2017-07-09T18:21:48.022Z,25.18
2017-07-09T18:24:17.223Z,25.15
2017-07-09T18:26:45.971Z,25.13
2017-07-09T18:29:14.093Z,25.09
2017-07-09T18:31:42.002Z,25.01
2017-07-09T18:34:10.217Z,24.80
2017-07-09T18:36:38.130Z,24.77
2017-07-09T18:39:06.475Z,24.84
2017-07-09T18:41:34.402Z,24.86
2017-07-09T18:44:02.328Z,24.86
2017-07-09T18:46:30.237Z,24.87
2017-07-09T18:48:58.155Z,24.84
2017-07-09T18:51:26.099Z,24.82
2017-07-09T18:53:54.170Z,24.78
2017-07-09T18:56:22.242Z,24.76
2017-07-09T18:58:50.482Z,24.74
2017-07-09T19:01:18.589Z,24.73
2017-07-09T19:03:46.536Z,24.70
2017-07-09T19:06:14.467Z,24.68
2017-07-09T19:08:42.382Z,24.71
2017-07-09T19:11:10.310Z,24.64
2017-07-09T19:13:38.332Z,24.59
2017-07-09T19:16:06.363Z,24.56
2017-07-09T19:18:34.302Z,24.52
2017-07-09T19:21:02.229Z,24.47
2017-07-09T19:23:30.525Z,24.44
2017-07-09T19:25:58.728Z,24.42
2017-07-09T19:28:26.627Z,24.35
2017-07-09T19:30:54.532Z,24.33
2017-07-09T19:33:22.672Z,24.26
2017-07-09T19:35:50.682Z,24.25
2017-07-09T19:38:18.596Z,24.22
2017-07-09T19:40:47.212Z,24.16
2017-07-09T19:43:15.136Z,24.17
2017-07-09T19:45:43.378Z,24.12
2017-07-09T19:48:11.494Z,24.09
2017-07-09T19:50:39.439Z,24.08
2017-07-09T19:53:07.478Z,24.03
2017-07-09T19:55:35.497Z,24.01
2017-07-09T19:58:03.610Z,24.00
2017-07-09T20:00:31.783Z,24.02
2017-07-09T20:02:59.887Z,24.00
2017-07-09T20:05:28.033Z,23.97
2017-07-09T20:07:56.156Z,23.91
2017-07-09T20:10:24.312Z,23.90
2017-07-09T20:12:52.234Z,23.88
2017-07-09T20:15:20.293Z,23.86
2017-07-09T20:17:48.224Z,23.92
2017-07-09T20:20:16.635Z,24.05
2017-07-09T20:22:44.599Z,24.14
2017-07-09T20:25:12.769Z,24.21
2017-07-09T20:27:40.939Z,24.27
2017-07-09T20:30:09.002Z,24.35
2017-07-09T20:32:36.927Z,24.40
2017-07-09T20:35:04.885Z,24.46
2017-07-09T20:37:32.853Z,24.50
2017-07-09T20:40:00.913Z,24.56
2017-07-09T20:42:29.095Z,24.60
2017-07-09T20:44:57.207Z,24.65
2017-07-09T20:47:25.114Z,24.69
2017-07-09T20:49:53.321Z,24.72
2017-07-09T20:52:21.422Z,24.76
2017-07-09T20:54:49.455Z,24.78
2017-07-09T20:57:17.358Z,24.81
2017-07-09T20:59:45.274Z,24.81
2017-07-09T21:02:13.236Z,24.82
2017-07-09T21:04:41.311Z,24.84
2017-07-09T21:07:09.392Z,24.86
2017-07-09T21:09:37.504Z,24.86
2017-07-09T21:12:05.632Z,24.87
2017-07-09T21:14:33.860Z,24.87
2017-07-09T21:17:01.950Z,24.89
2017-07-09T21:19:30.094Z,24.89
2017-07-09T21:21:58.288Z,24.88
2017-07-09T21:24:26.227Z,24.89
2017-07-09T21:26:54.371Z,24.89
2017-07-09T21:29:22.472Z,24.91
2017-07-09T21:31:50.455Z,24.91
2017-07-09T21:34:18.546Z,24.90
2017-07-09T21:36:47.023Z,24.90
2017-07-09T21:39:15.137Z,24.90
2017-07-09T21:41:43.050Z,24.90
2017-07-09T21:44:10.953Z,24.89
2017-07-09T21:46:38.939Z,24.90
2017-07-09T21:49:06.966Z,24.89
2017-07-09T21:51:35.047Z,24.89
2017-07-09T21:54:03.094Z,24.88
2017-07-09T21:56:31.169Z,24.88
2017-07-09T21:58:59.422Z,24.87
2017-07-09T22:01:27.357Z,24.87
2017-07-09T22:03:55.526Z,24.86
2017-07-09T22:06:23.433Z,24.86
2017-07-09T22:08:51.477Z,24.86
2017-07-09T22:11:19.456Z,24.85
2017-07-09T22:13:47.372Z,24.85
2017-07-09T22:16:15.297Z,24.85
2017-07-09T22:18:43.201Z,24.85
2017-07-09T22:21:11.110Z,24.85
2017-07-09T22:23:39.145Z,24.84
2017-07-09T22:26:07.049Z,24.84
2017-07-09T22:28:34.985Z,24.83
2017-07-09T22:31:02.882Z,24.83
2017-07-09T22:33:30.778Z,24.85
2017-07-09T22:35:58.688Z,24.84
2017-07-09T22:38:26.588Z,24.83
2017-07-09T22:40:54.520Z,24.83
2017-07-09T22:43:23.321Z,24.82
2017-07-09T22:45:51.301Z,24.82
2017-07-09T22:48:19.640Z,24.82
2017-07-09T22:50:47.558Z,24.83
2017-07-09T22:53:15.520Z,24.83
2017-07-09T22:55:43.419Z,24.82
2017-07-09T22:58:11.348Z,24.82
2017-07-09T23:00:40.047Z,24.82
2017-07-09T23:03:08.008Z,24.82
2017-07-09T23:05:35.923Z,24.82
2017-07-09T23:08:03.832Z,24.81
2017-07-09T23:10:31.744Z,24.81
2017-07-09T23:12:59.642Z,24.80
2017-07-09T23:15:27.556Z,24.81
2017-07-09T23:17:55.465Z,24.80
2017-07-09T23:20:23.367Z,24.79
2017-07-09T23:22:51.290Z,24.79
2017-07-09T23:25:19.186Z,24.79
2017-07-09T23:27:47.111Z,24.80
2017-07-09T23:30:15.021Z,24.79
2017-07-09T23:32:42.924Z,24.79
2017-07-09T23:35:10.852Z,24.79
2017-07-09T23:37:38.751Z,24.78
2017-07-09T23:40:06.680Z,24.78
2017-07-09T23:42:34.577Z,24.78
2017-07-09T23:45:02.489Z,24.78
2017-07-09T23:47:30.425Z,24.78
2017-07-09T23:49:58.343Z,24.77
2017-07-09T23:52:26.243Z,24.78
2017-07-09T23:54:54.155Z,24.77
2017-07-09T23:57:22.063Z,24.78
2017-07-09T23:59:50.009Z,24.77
